CCA1017 ZBAA-ZSAM
Flight info
| Callsign | CCA1017 |
|---|---|
| Flight time | 2h 31m |
| Altitude | 34100 |
| Route | ELKUR W40 YQG W568 ABTUB A593 DPX A470 SAPIN V143 EMRID A470 ENVEN |
| Aircraft | B772/H-SDE2E3FGHIJ5LORVWXY/LB1D1 |
Departure
| Time | 2026-05-07 13:55 |
|---|---|
| Airport | Beijing Capital International Airport (ZBAA) |
Arrival
| Time | 2026-05-07 16:26 |
|---|---|
| Airport | Xiamen Gaoqi International Airport (ZSAM) |
| Time | Latitude | Longitude | Altitude | Speed | Heading |
|---|---|---|---|---|---|
| 2026-05-07 13:21 | 40.05881 | 116.61009 | 131 ft | 0 kts | 244° |
| 2026-05-07 13:43 | 40.05883 | 116.61013 | 131 ft | 2 kts | 245° |
| 2026-05-07 13:43 | 40.05889 | 116.61031 | 131 ft | 2 kts | 249° |
| 2026-05-07 13:44 | 40.05893 | 116.61049 | 131 ft | 2 kts | 264° |
| 2026-05-07 13:44 | 40.05893 | 116.61069 | 131 ft | 2 kts | 276° |
| 2026-05-07 13:44 | 40.05891 | 116.61088 | 131 ft | 2 kts | 288° |
| 2026-05-07 13:44 | 40.05885 | 116.61105 | 131 ft | 2 kts | 299° |
| 2026-05-07 13:45 | 40.05877 | 116.61121 | 131 ft | 2 kts | 311° |
| 2026-05-07 13:45 | 40.05867 | 116.61135 | 131 ft | 2 kts | 323° |
| 2026-05-07 13:45 | 40.05854 | 116.61146 | 131 ft | 2 kts | 335° |
| 2026-05-07 13:45 | 40.05840 | 116.61153 | 131 ft | 2 kts | 347° |
| 2026-05-07 13:46 | 40.05830 | 116.61155 | 131 ft | 0 kts | 355° |
| 2026-05-07 13:46 | 40.05828 | 116.61156 | 131 ft | 0 kts | 355° |
| 2026-05-07 13:48 | 40.05830 | 116.61155 | 131 ft | 3 kts | 355° |
| 2026-05-07 13:48 | 40.05912 | 116.61141 | 131 ft | 19 kts | 352° |
| 2026-05-07 13:48 | 40.06067 | 116.61119 | 131 ft | 23 kts | 354° |
| 2026-05-07 13:49 | 40.06223 | 116.61075 | 131 ft | 23 kts | 323° |
| 2026-05-07 13:49 | 40.06230 | 116.60886 | 131 ft | 22 kts | 266° |
| 2026-05-07 13:49 | 40.06213 | 116.60683 | 131 ft | 22 kts | 259° |
| 2026-05-07 13:49 | 40.06191 | 116.60476 | 131 ft | 23 kts | 262° |
| 2026-05-07 13:50 | 40.06169 | 116.60264 | 131 ft | 24 kts | 262° |
| 2026-05-07 13:50 | 40.06155 | 116.60046 | 131 ft | 24 kts | 263° |
| 2026-05-07 13:50 | 40.06133 | 116.59821 | 131 ft | 25 kts | 263° |
| 2026-05-07 13:50 | 40.06018 | 116.59704 | 131 ft | 24 kts | 173° |
| 2026-05-07 13:51 | 40.05850 | 116.59740 | 131 ft | 24 kts | 174° |
| 2026-05-07 13:51 | 40.05680 | 116.59763 | 131 ft | 24 kts | 166° |
| 2026-05-07 13:51 | 40.05519 | 116.59789 | 131 ft | 13 kts | 176° |
| 2026-05-07 13:51 | 40.05484 | 116.59873 | 131 ft | 12 kts | 78° |
| 2026-05-07 13:52 | 40.05540 | 116.59969 | 131 ft | 13 kts | 32° |
| 2026-05-07 13:52 | 40.05635 | 116.59999 | 131 ft | 15 kts | 359° |
| 2026-05-07 13:52 | 40.05741 | 116.59978 | 131 ft | 16 kts | 351° |
| 2026-05-07 13:52 | 40.05857 | 116.59956 | 131 ft | 17 kts | 354° |
| 2026-05-07 13:53 | 40.05870 | 116.59954 | 131 ft | 2 kts | 353° |
| 2026-05-07 13:53 | 40.05897 | 116.59950 | 131 ft | 5 kts | 353° |
| 2026-05-07 13:53 | 40.05942 | 116.59943 | 131 ft | 7 kts | 354° |
| 2026-05-07 13:53 | 40.05959 | 116.59941 | 131 ft | 0 kts | 354° |
| 2026-05-07 13:54 | 40.05963 | 116.59940 | 131 ft | 3 kts | 354° |
| 2026-05-07 13:54 | 40.06266 | 116.59895 | 131 ft | 92 kts | 354° |
| 2026-05-07 13:54 | 40.07089 | 116.59764 | 132 ft | 142 kts | 351° |
| 2026-05-07 13:54 | 40.08158 | 116.59604 | 413 ft | 156 kts | 355° |
| 2026-05-07 13:55 | 40.09250 | 116.59491 | 936 ft | 173 kts | 349° |
| 2026-05-07 13:55 | 40.10386 | 116.59265 | 1730 ft | 178 kts | 350° |
| 2026-05-07 13:55 | 40.11655 | 116.59053 | 2314 ft | 189 kts | 351° |
| 2026-05-07 13:55 | 40.12945 | 116.58851 | 2860 ft | 200 kts | 351° |
| 2026-05-07 13:56 | 40.14350 | 116.58630 | 3412 ft | 210 kts | 351° |
| 2026-05-07 13:56 | 40.15789 | 116.58404 | 3951 ft | 218 kts | 351° |
| 2026-05-07 13:56 | 40.17307 | 116.58164 | 4488 ft | 226 kts | 351° |
| 2026-05-07 13:56 | 40.18919 | 116.57909 | 5039 ft | 240 kts | 351° |
| 2026-05-07 13:57 | 40.20587 | 116.57646 | 5589 ft | 250 kts | 352° |
| 2026-05-07 13:57 | 40.22319 | 116.57727 | 6119 ft | 252 kts | 12° |
| 2026-05-07 13:57 | 40.23914 | 116.58727 | 6630 ft | 260 kts | 37° |
| 2026-05-07 13:57 | 40.25068 | 116.60518 | 7148 ft | 263 kts | 62° |
| 2026-05-07 13:58 | 40.25588 | 116.62824 | 7676 ft | 268 kts | 82° |
| 2026-05-07 13:58 | 40.25804 | 116.65236 | 8200 ft | 270 kts | 84° |
| 2026-05-07 13:58 | 40.26002 | 116.67678 | 8727 ft | 272 kts | 84° |
| 2026-05-07 13:58 | 40.26192 | 116.69925 | 9211 ft | 281 kts | 84° |
| 2026-05-07 13:59 | 40.26421 | 116.72539 | 9764 ft | 293 kts | 84° |
| 2026-05-07 13:59 | 40.26655 | 116.75214 | 10308 ft | 305 kts | 84° |
| 2026-05-07 13:59 | 40.26900 | 116.78012 | 10856 ft | 316 kts | 84° |
| 2026-05-07 13:59 | 40.27153 | 116.80904 | 11400 ft | 326 kts | 84° |
| 2026-05-07 14:00 | 40.27413 | 116.83890 | 11941 ft | 331 kts | 84° |
| 2026-05-07 14:00 | 40.27672 | 116.86875 | 12466 ft | 335 kts | 85° |
| 2026-05-07 14:00 | 40.27719 | 116.89961 | 12998 ft | 340 kts | 95° |
| 2026-05-07 14:00 | 40.27357 | 116.93012 | 13522 ft | 343 kts | 105° |
| 2026-05-07 14:01 | 40.26582 | 116.95971 | 14047 ft | 346 kts | 116° |
| 2026-05-07 14:01 | 40.25845 | 116.97834 | 14397 ft | 348 kts | 123° |
| 2026-05-07 14:01 | 40.23873 | 117.01177 | 15098 ft | 351 kts | 138° |
| 2026-05-07 14:01 | 40.22020 | 117.03233 | 15624 ft | 352 kts | 149° |
| 2026-05-07 14:02 | 40.19923 | 117.04814 | 16146 ft | 352 kts | 160° |
| 2026-05-07 14:02 | 40.17624 | 117.05884 | 16673 ft | 351 kts | 171° |
| 2026-05-07 14:02 | 40.15211 | 117.06432 | 17207 ft | 350 kts | 179° |
| 2026-05-07 14:02 | 40.12788 | 117.06772 | 17738 ft | 353 kts | 179° |
| 2026-05-07 14:03 | 40.10354 | 117.07124 | 18268 ft | 356 kts | 179° |
| 2026-05-07 14:03 | 40.07888 | 117.07510 | 18800 ft | 359 kts | 179° |
| 2026-05-07 14:03 | 40.05425 | 117.07910 | 19328 ft | 363 kts | 179° |
| 2026-05-07 14:03 | 40.02898 | 117.08328 | 19864 ft | 366 kts | 179° |
| 2026-05-07 14:04 | 40.00391 | 117.08745 | 20393 ft | 369 kts | 180° |
| 2026-05-07 14:04 | 39.97840 | 117.09171 | 20926 ft | 372 kts | 180° |
| 2026-05-07 14:04 | 39.95277 | 117.09599 | 21457 ft | 375 kts | 180° |
| 2026-05-07 14:04 | 39.92648 | 117.10038 | 21998 ft | 379 kts | 180° |
| 2026-05-07 14:05 | 39.90064 | 117.10471 | 22525 ft | 381 kts | 181° |
| 2026-05-07 14:05 | 39.87411 | 117.10914 | 23061 ft | 384 kts | 181° |
| 2026-05-07 14:05 | 39.84750 | 117.11358 | 23594 ft | 388 kts | 181° |
| 2026-05-07 14:05 | 39.82099 | 117.11800 | 24121 ft | 390 kts | 181° |
| 2026-05-07 14:06 | 39.79389 | 117.12252 | 24656 ft | 394 kts | 182° |
| 2026-05-07 14:06 | 39.76699 | 117.12701 | 25183 ft | 396 kts | 182° |
| 2026-05-07 14:06 | 39.73961 | 117.13156 | 25717 ft | 399 kts | 182° |
| 2026-05-07 14:06 | 39.72140 | 117.13459 | 26072 ft | 401 kts | 182° |
| 2026-05-07 14:07 | 39.68481 | 117.14069 | 26775 ft | 402 kts | 183° |
| 2026-05-07 14:07 | 39.65678 | 117.14535 | 27315 ft | 404 kts | 183° |
| 2026-05-07 14:07 | 39.62910 | 117.14994 | 27846 ft | 407 kts | 183° |
| 2026-05-07 14:07 | 39.60096 | 117.15460 | 28382 ft | 408 kts | 184° |
| 2026-05-07 14:08 | 39.57310 | 117.15923 | 28914 ft | 410 kts | 184° |
| 2026-05-07 14:08 | 39.54487 | 117.16390 | 29442 ft | 411 kts | 184° |
| 2026-05-07 14:08 | 39.51923 | 117.16769 | 29923 ft | 407 kts | 188° |
| 2026-05-07 14:08 | 39.49311 | 117.16782 | 30420 ft | 396 kts | 195° |
| 2026-05-07 14:09 | 39.47298 | 117.16491 | 30814 ft | 388 kts | 201° |
| 2026-05-07 14:09 | 39.42899 | 117.14884 | 31735 ft | 370 kts | 214° |
| 2026-05-07 14:09 | 39.39696 | 117.12941 | 32479 ft | 364 kts | 217° |
| 2026-05-07 14:10 | 39.37431 | 117.11517 | 33006 ft | 364 kts | 217° |
| 2026-05-07 14:10 | 39.35160 | 117.10098 | 33541 ft | 363 kts | 217° |
| 2026-05-07 14:10 | 39.32894 | 117.08689 | 34063 ft | 362 kts | 218° |
| 2026-05-07 14:10 | 39.30636 | 117.07284 | 34262 ft | 368 kts | 217° |
| 2026-05-07 14:11 | 39.28297 | 117.05830 | 34273 ft | 377 kts | 217° |
| 2026-05-07 14:11 | 39.23509 | 117.02872 | 34270 ft | 384 kts | 217° |
| 2026-05-07 14:12 | 39.19186 | 117.00211 | 34272 ft | 386 kts | 217° |
| 2026-05-07 14:12 | 39.14228 | 116.97151 | 34272 ft | 404 kts | 217° |
| 2026-05-07 14:13 | 39.09067 | 116.93976 | 34272 ft | 420 kts | 216° |
| 2026-05-07 14:13 | 39.03727 | 116.90699 | 34275 ft | 434 kts | 216° |
| 2026-05-07 14:14 | 38.98256 | 116.87350 | 34268 ft | 444 kts | 215° |
| 2026-05-07 14:14 | 38.92625 | 116.83911 | 34270 ft | 450 kts | 214° |
| 2026-05-07 14:15 | 38.86985 | 116.80473 | 34270 ft | 451 kts | 214° |
| 2026-05-07 14:15 | 38.81357 | 116.77048 | 34268 ft | 451 kts | 214° |
| 2026-05-07 14:16 | 38.75700 | 116.73611 | 34265 ft | 451 kts | 214° |
| 2026-05-07 14:16 | 38.70052 | 116.70183 | 34269 ft | 451 kts | 214° |
| 2026-05-07 14:17 | 38.64292 | 116.67046 | 34261 ft | 462 kts | 206° |
| 2026-05-07 14:17 | 38.61150 | 116.66212 | 34258 ft | 473 kts | 198° |
| 2026-05-07 14:17 | 38.57840 | 116.65774 | 34264 ft | 476 kts | 195° |
| 2026-05-07 14:18 | 38.51242 | 116.65019 | 34266 ft | 480 kts | 195° |
| 2026-05-07 14:18 | 38.44656 | 116.64272 | 34263 ft | 476 kts | 195° |
| 2026-05-07 14:19 | 38.38086 | 116.63522 | 34265 ft | 478 kts | 195° |
| 2026-05-07 14:19 | 38.31461 | 116.62858 | 34259 ft | 484 kts | 191° |
| 2026-05-07 14:19 | 38.28059 | 116.63161 | 34259 ft | 499 kts | 182° |
| 2026-05-07 14:20 | 38.24603 | 116.64135 | 34263 ft | 512 kts | 175° |
| 2026-05-07 14:20 | 38.17784 | 116.66668 | 34262 ft | 513 kts | 174° |
| 2026-05-07 14:21 | 38.10989 | 116.69212 | 34267 ft | 513 kts | 174° |
| 2026-05-07 14:21 | 38.04169 | 116.71812 | 34262 ft | 512 kts | 174° |
| 2026-05-07 14:22 | 37.97382 | 116.74407 | 34265 ft | 516 kts | 174° |
| 2026-05-07 14:22 | 37.90517 | 116.77024 | 34263 ft | 514 kts | 174° |
| 2026-05-07 14:23 | 37.83785 | 116.79583 | 34271 ft | 513 kts | 174° |
| 2026-05-07 14:23 | 37.76983 | 116.82159 | 34266 ft | 514 kts | 174° |
| 2026-05-07 14:24 | 37.70167 | 116.84737 | 34271 ft | 512 kts | 174° |
| 2026-05-07 14:24 | 37.63372 | 116.87300 | 34267 ft | 514 kts | 174° |
| 2026-05-07 14:25 | 37.56521 | 116.89880 | 34267 ft | 512 kts | 174° |
| 2026-05-07 14:25 | 37.49741 | 116.92429 | 34268 ft | 512 kts | 174° |
| 2026-05-07 14:26 | 37.42882 | 116.94999 | 34273 ft | 513 kts | 174° |
| 2026-05-07 14:26 | 37.36086 | 116.97543 | 34269 ft | 514 kts | 174° |
| 2026-05-07 14:27 | 37.29259 | 117.00091 | 34270 ft | 517 kts | 174° |
| 2026-05-07 14:27 | 37.22469 | 117.03176 | 34274 ft | 520 kts | 169° |
| 2026-05-07 14:28 | 37.15738 | 117.06386 | 34273 ft | 522 kts | 169° |
| 2026-05-07 14:28 | 37.08989 | 117.09573 | 34273 ft | 523 kts | 169° |
| 2026-05-07 14:29 | 37.02199 | 117.12756 | 34272 ft | 520 kts | 168° |
| 2026-05-07 14:29 | 36.95444 | 117.15910 | 34270 ft | 519 kts | 167° |
| 2026-05-07 14:30 | 36.88729 | 117.19035 | 34274 ft | 519 kts | 167° |
| 2026-05-07 14:30 | 36.81874 | 117.21288 | 34270 ft | 501 kts | 181° |
| 2026-05-07 14:31 | 36.75040 | 117.21515 | 34275 ft | 491 kts | 188° |
| 2026-05-07 14:31 | 36.68240 | 117.21479 | 34271 ft | 494 kts | 188° |
| 2026-05-07 14:32 | 36.61377 | 117.21436 | 34276 ft | 492 kts | 188° |
| 2026-05-07 14:32 | 36.54577 | 117.21392 | 34281 ft | 493 kts | 188° |
| 2026-05-07 14:33 | 36.47724 | 117.21345 | 34276 ft | 493 kts | 188° |
| 2026-05-07 14:33 | 36.40888 | 117.21821 | 34274 ft | 503 kts | 177° |
| 2026-05-07 14:34 | 36.34090 | 117.24140 | 34278 ft | 512 kts | 171° |
| 2026-05-07 14:34 | 36.27286 | 117.26682 | 34278 ft | 514 kts | 171° |
| 2026-05-07 14:35 | 36.20487 | 117.29214 | 34273 ft | 512 kts | 171° |
| 2026-05-07 14:35 | 36.13673 | 117.31741 | 34274 ft | 514 kts | 171° |
| 2026-05-07 14:36 | 36.06861 | 117.34263 | 34288 ft | 514 kts | 171° |
| 2026-05-07 14:36 | 36.00019 | 117.36790 | 34308 ft | 511 kts | 171° |
| 2026-05-07 14:37 | 35.93218 | 117.39332 | 34321 ft | 515 kts | 171° |
| 2026-05-07 14:37 | 35.83058 | 117.43138 | 34322 ft | 513 kts | 171° |
| 2026-05-07 14:38 | 35.76207 | 117.45696 | 34321 ft | 514 kts | 171° |
| 2026-05-07 14:38 | 35.69379 | 117.48241 | 34321 ft | 515 kts | 171° |
| 2026-05-07 14:39 | 35.62576 | 117.50773 | 34320 ft | 510 kts | 171° |
| 2026-05-07 14:39 | 35.55812 | 117.53281 | 34328 ft | 514 kts | 171° |
| 2026-05-07 14:40 | 35.48992 | 117.55808 | 34322 ft | 513 kts | 171° |
| 2026-05-07 14:40 | 35.42188 | 117.58324 | 34324 ft | 515 kts | 171° |
| 2026-05-07 14:41 | 35.35352 | 117.60850 | 34322 ft | 512 kts | 171° |
| 2026-05-07 14:41 | 35.28536 | 117.63362 | 34323 ft | 512 kts | 171° |
| 2026-05-07 14:42 | 35.21762 | 117.65854 | 34307 ft | 513 kts | 172° |
| 2026-05-07 14:42 | 35.14910 | 117.68370 | 34308 ft | 514 kts | 172° |
| 2026-05-07 14:43 | 35.08137 | 117.70854 | 34305 ft | 512 kts | 172° |
| 2026-05-07 14:43 | 35.01313 | 117.73354 | 34304 ft | 512 kts | 171° |
| 2026-05-07 14:44 | 34.94550 | 117.75832 | 34304 ft | 509 kts | 170° |
| 2026-05-07 14:44 | 34.87791 | 117.78301 | 34306 ft | 507 kts | 169° |
| 2026-05-07 14:45 | 34.81074 | 117.80759 | 34300 ft | 509 kts | 169° |
| 2026-05-07 14:45 | 34.74301 | 117.83203 | 34296 ft | 507 kts | 170° |
| 2026-05-07 14:46 | 34.67566 | 117.85624 | 34286 ft | 507 kts | 169° |
| 2026-05-07 14:46 | 34.60842 | 117.88037 | 34291 ft | 507 kts | 169° |
| 2026-05-07 14:47 | 34.54077 | 117.90462 | 34290 ft | 507 kts | 169° |
| 2026-05-07 14:47 | 34.47326 | 117.92879 | 34296 ft | 507 kts | 169° |
| 2026-05-07 14:48 | 34.40600 | 117.95283 | 34288 ft | 506 kts | 169° |
| 2026-05-07 14:48 | 34.33913 | 117.97669 | 34290 ft | 507 kts | 170° |
| 2026-05-07 14:49 | 34.27114 | 118.00090 | 34293 ft | 507 kts | 169° |
| 2026-05-07 14:49 | 34.20411 | 118.02529 | 34294 ft | 508 kts | 169° |
| 2026-05-07 14:50 | 34.13652 | 118.04994 | 34287 ft | 507 kts | 169° |
| 2026-05-07 14:50 | 34.06916 | 118.07445 | 34286 ft | 505 kts | 169° |
| 2026-05-07 14:51 | 34.00198 | 118.09882 | 34296 ft | 508 kts | 169° |
| 2026-05-07 14:51 | 33.93452 | 118.12340 | 34288 ft | 509 kts | 169° |
| 2026-05-07 14:52 | 33.86764 | 118.14775 | 34292 ft | 507 kts | 169° |
| 2026-05-07 14:52 | 33.80015 | 118.17225 | 34297 ft | 510 kts | 169° |
| 2026-05-07 14:53 | 33.73239 | 118.19694 | 34300 ft | 506 kts | 169° |
| 2026-05-07 14:53 | 33.66546 | 118.22133 | 34296 ft | 508 kts | 169° |
| 2026-05-07 14:54 | 33.59780 | 118.24591 | 34290 ft | 507 kts | 169° |
| 2026-05-07 14:54 | 33.53063 | 118.27026 | 34296 ft | 508 kts | 169° |
| 2026-05-07 14:55 | 33.46339 | 118.29461 | 34297 ft | 506 kts | 169° |
| 2026-05-07 14:55 | 33.39669 | 118.31873 | 34294 ft | 506 kts | 169° |
| 2026-05-07 14:56 | 33.32933 | 118.34302 | 34298 ft | 508 kts | 169° |
| 2026-05-07 14:56 | 33.26205 | 118.36726 | 34295 ft | 506 kts | 169° |
| 2026-05-07 14:57 | 33.19490 | 118.39142 | 34294 ft | 509 kts | 169° |
| 2026-05-07 14:57 | 33.12726 | 118.41580 | 34296 ft | 506 kts | 169° |
| 2026-05-07 14:58 | 33.06027 | 118.43988 | 34297 ft | 509 kts | 168° |
| 2026-05-07 14:58 | 32.99288 | 118.46409 | 34297 ft | 507 kts | 168° |
| 2026-05-07 14:59 | 32.92580 | 118.48814 | 34297 ft | 506 kts | 167° |
| 2026-05-07 14:59 | 32.85971 | 118.51181 | 34297 ft | 507 kts | 167° |
| 2026-05-07 15:00 | 32.79239 | 118.53587 | 34300 ft | 506 kts | 167° |
| 2026-05-07 15:00 | 32.72526 | 118.55983 | 34300 ft | 506 kts | 167° |
| 2026-05-07 15:01 | 32.65815 | 118.58395 | 34298 ft | 507 kts | 165° |
| 2026-05-07 15:01 | 32.59238 | 118.61398 | 34298 ft | 511 kts | 162° |
| 2026-05-07 15:02 | 32.52652 | 118.64456 | 34297 ft | 508 kts | 163° |
| 2026-05-07 15:02 | 32.46077 | 118.67478 | 34287 ft | 510 kts | 163° |
| 2026-05-07 15:03 | 32.39505 | 118.70480 | 34288 ft | 509 kts | 163° |
| 2026-05-07 15:03 | 32.32930 | 118.73470 | 34290 ft | 509 kts | 163° |
| 2026-05-07 15:04 | 32.26320 | 118.76467 | 34290 ft | 509 kts | 163° |
| 2026-05-07 15:04 | 32.19741 | 118.79443 | 34291 ft | 509 kts | 163° |
| 2026-05-07 15:05 | 32.13155 | 118.82417 | 34291 ft | 510 kts | 163° |
| 2026-05-07 15:05 | 32.06537 | 118.85399 | 34289 ft | 509 kts | 163° |
| 2026-05-07 15:06 | 31.99945 | 118.88364 | 34290 ft | 510 kts | 163° |
| 2026-05-07 15:06 | 31.93336 | 118.91332 | 34289 ft | 510 kts | 163° |
| 2026-05-07 15:07 | 31.86728 | 118.94295 | 34294 ft | 510 kts | 163° |
| 2026-05-07 15:07 | 31.80154 | 118.97240 | 34294 ft | 511 kts | 163° |
| 2026-05-07 15:08 | 31.73528 | 119.00216 | 34291 ft | 510 kts | 163° |
| 2026-05-07 15:08 | 31.70239 | 119.01691 | 34185 ft | 510 kts | 163° |
| 2026-05-07 15:08 | 31.66917 | 119.03181 | 34181 ft | 510 kts | 163° |
| 2026-05-07 15:09 | 31.60190 | 119.05585 | 34178 ft | 508 kts | 166° |
| 2026-05-07 15:09 | 31.53795 | 119.09247 | 34179 ft | 520 kts | 149° |
| 2026-05-07 15:10 | 31.48005 | 119.14195 | 34181 ft | 521 kts | 147° |
| 2026-05-07 15:10 | 31.42202 | 119.19247 | 34180 ft | 520 kts | 147° |
| 2026-05-07 15:11 | 31.36396 | 119.24299 | 34181 ft | 521 kts | 147° |
| 2026-05-07 15:11 | 31.30614 | 119.29328 | 34181 ft | 521 kts | 147° |
| 2026-05-07 15:12 | 31.24829 | 119.34355 | 34182 ft | 521 kts | 147° |
| 2026-05-07 15:12 | 31.19003 | 119.39413 | 34182 ft | 520 kts | 147° |
| 2026-05-07 15:13 | 31.13219 | 119.44467 | 34182 ft | 521 kts | 147° |
| 2026-05-07 15:13 | 31.07460 | 119.49499 | 34183 ft | 521 kts | 147° |
| 2026-05-07 15:14 | 31.01684 | 119.54535 | 34183 ft | 520 kts | 147° |
| 2026-05-07 15:14 | 30.95913 | 119.59560 | 34182 ft | 517 kts | 146° |
| 2026-05-07 15:15 | 30.90184 | 119.64540 | 34181 ft | 514 kts | 145° |
| 2026-05-07 15:15 | 30.84653 | 119.69340 | 34179 ft | 513 kts | 146° |
| 2026-05-07 15:16 | 30.78959 | 119.74274 | 34179 ft | 513 kts | 146° |
| 2026-05-07 15:16 | 30.73249 | 119.79215 | 34179 ft | 513 kts | 146° |
| 2026-05-07 15:17 | 30.67532 | 119.84138 | 34179 ft | 513 kts | 146° |
| 2026-05-07 15:17 | 30.61802 | 119.89047 | 34179 ft | 513 kts | 146° |
| 2026-05-07 15:18 | 30.56130 | 119.94007 | 34178 ft | 513 kts | 145° |
| 2026-05-07 15:18 | 30.49836 | 119.97988 | 34177 ft | 507 kts | 162° |
| 2026-05-07 15:19 | 30.43038 | 119.99593 | 34177 ft | 502 kts | 179° |
| 2026-05-07 15:19 | 30.36147 | 119.98784 | 34177 ft | 497 kts | 196° |
| 2026-05-07 15:20 | 30.29560 | 119.95569 | 34180 ft | 493 kts | 210° |
| 2026-05-07 15:20 | 30.23529 | 119.91698 | 34178 ft | 493 kts | 211° |
| 2026-05-07 15:21 | 30.17541 | 119.87789 | 34184 ft | 494 kts | 211° |
| 2026-05-07 15:21 | 30.11575 | 119.83868 | 34192 ft | 494 kts | 211° |
| 2026-05-07 15:22 | 30.05510 | 119.79872 | 34198 ft | 494 kts | 211° |
| 2026-05-07 15:22 | 29.99453 | 119.75822 | 34198 ft | 494 kts | 211° |
| 2026-05-07 15:23 | 29.93507 | 119.71827 | 34198 ft | 494 kts | 212° |
| 2026-05-07 15:23 | 29.87490 | 119.68086 | 34196 ft | 496 kts | 204° |
| 2026-05-07 15:24 | 29.80776 | 119.66240 | 34196 ft | 500 kts | 187° |
| 2026-05-07 15:24 | 29.73848 | 119.65820 | 34200 ft | 501 kts | 185° |
| 2026-05-07 15:25 | 29.66909 | 119.65344 | 34199 ft | 501 kts | 185° |
| 2026-05-07 15:25 | 29.59872 | 119.64916 | 34200 ft | 501 kts | 184° |
| 2026-05-07 15:26 | 29.52897 | 119.64744 | 34200 ft | 501 kts | 185° |
| 2026-05-07 15:26 | 29.45972 | 119.64328 | 34268 ft | 501 kts | 185° |
| 2026-05-07 15:27 | 29.39061 | 119.63899 | 34270 ft | 500 kts | 185° |
| 2026-05-07 15:27 | 29.32137 | 119.63471 | 34270 ft | 500 kts | 185° |
| 2026-05-07 15:28 | 29.25211 | 119.63045 | 34269 ft | 500 kts | 185° |
| 2026-05-07 15:28 | 29.18285 | 119.62622 | 34269 ft | 500 kts | 185° |
| 2026-05-07 15:29 | 29.11375 | 119.62200 | 34269 ft | 500 kts | 185° |
| 2026-05-07 15:29 | 29.04474 | 119.61774 | 34270 ft | 495 kts | 183° |
| 2026-05-07 15:30 | 28.97603 | 119.61346 | 34271 ft | 502 kts | 182° |
| 2026-05-07 15:30 | 28.90625 | 119.60912 | 34272 ft | 508 kts | 182° |
| 2026-05-07 15:31 | 28.83574 | 119.60474 | 34272 ft | 508 kts | 182° |
| 2026-05-07 15:31 | 28.76553 | 119.60039 | 34272 ft | 508 kts | 182° |
| 2026-05-07 15:32 | 28.69555 | 119.59605 | 34272 ft | 508 kts | 182° |
| 2026-05-07 15:32 | 28.62532 | 119.59171 | 34272 ft | 508 kts | 182° |
| 2026-05-07 15:33 | 28.55512 | 119.58737 | 34272 ft | 508 kts | 182° |
| 2026-05-07 15:33 | 28.48483 | 119.58304 | 34272 ft | 508 kts | 182° |
| 2026-05-07 15:34 | 28.41429 | 119.57888 | 34272 ft | 508 kts | 182° |
| 2026-05-07 15:34 | 28.34436 | 119.57503 | 34272 ft | 508 kts | 182° |
| 2026-05-07 15:35 | 28.27411 | 119.57117 | 34260 ft | 508 kts | 182° |
| 2026-05-07 15:35 | 28.20350 | 119.56728 | 34224 ft | 508 kts | 182° |
| 2026-05-07 15:36 | 28.13345 | 119.56342 | 34188 ft | 508 kts | 182° |
| 2026-05-07 15:36 | 28.06322 | 119.56046 | 34177 ft | 508 kts | 180° |
| 2026-05-07 15:37 | 27.99282 | 119.55961 | 34169 ft | 508 kts | 180° |
| 2026-05-07 15:37 | 27.92231 | 119.55869 | 34167 ft | 508 kts | 180° |
| 2026-05-07 15:38 | 27.85215 | 119.55827 | 34168 ft | 508 kts | 180° |
| 2026-05-07 15:38 | 27.78180 | 119.55796 | 34168 ft | 508 kts | 180° |
| 2026-05-07 15:39 | 27.71139 | 119.55762 | 34168 ft | 508 kts | 180° |
| 2026-05-07 15:39 | 27.64104 | 119.55724 | 34168 ft | 508 kts | 180° |
| 2026-05-07 15:40 | 27.57098 | 119.55686 | 34168 ft | 508 kts | 180° |
| 2026-05-07 15:40 | 27.50040 | 119.55647 | 34168 ft | 508 kts | 180° |
| 2026-05-07 15:41 | 27.43020 | 119.55608 | 34168 ft | 508 kts | 180° |
| 2026-05-07 15:41 | 27.35958 | 119.55595 | 34168 ft | 508 kts | 179° |
| 2026-05-07 15:42 | 27.28961 | 119.55585 | 34167 ft | 508 kts | 179° |
| 2026-05-07 15:42 | 27.21923 | 119.55563 | 34168 ft | 508 kts | 180° |
| 2026-05-07 15:43 | 27.14890 | 119.55515 | 34167 ft | 508 kts | 180° |
| 2026-05-07 15:43 | 27.07826 | 119.55469 | 34167 ft | 508 kts | 180° |
| 2026-05-07 15:44 | 27.00822 | 119.55423 | 34167 ft | 506 kts | 180° |
| 2026-05-07 15:44 | 26.93802 | 119.55378 | 33880 ft | 502 kts | 180° |
| 2026-05-07 15:45 | 26.90391 | 119.55356 | 33440 ft | 496 kts | 180° |
| 2026-05-07 15:45 | 26.87056 | 119.55335 | 33006 ft | 489 kts | 180° |
| 2026-05-07 15:45 | 26.84078 | 119.55316 | 32616 ft | 484 kts | 180° |
| 2026-05-07 15:45 | 26.80623 | 119.55294 | 32158 ft | 481 kts | 180° |
| 2026-05-07 15:46 | 26.75415 | 119.55260 | 31460 ft | 475 kts | 180° |
| 2026-05-07 15:46 | 26.70998 | 119.55232 | 30861 ft | 471 kts | 180° |
| 2026-05-07 15:46 | 26.67773 | 119.55212 | 30420 ft | 468 kts | 180° |
| 2026-05-07 15:47 | 26.64541 | 119.55191 | 29975 ft | 464 kts | 180° |
| 2026-05-07 15:47 | 26.61322 | 119.55171 | 29525 ft | 461 kts | 180° |
| 2026-05-07 15:47 | 26.58160 | 119.55151 | 29083 ft | 458 kts | 180° |
| 2026-05-07 15:47 | 26.54971 | 119.55131 | 28634 ft | 455 kts | 180° |
| 2026-05-07 15:48 | 26.51835 | 119.55111 | 28190 ft | 452 kts | 180° |
| 2026-05-07 15:48 | 26.48724 | 119.55091 | 27745 ft | 449 kts | 180° |
| 2026-05-07 15:48 | 26.45651 | 119.55071 | 27303 ft | 446 kts | 180° |
| 2026-05-07 15:48 | 26.42577 | 119.55052 | 26858 ft | 443 kts | 180° |
| 2026-05-07 15:49 | 26.39506 | 119.55032 | 26410 ft | 440 kts | 180° |
| 2026-05-07 15:49 | 26.36462 | 119.55007 | 25962 ft | 437 kts | 180° |
| 2026-05-07 15:49 | 26.33442 | 119.54971 | 25513 ft | 434 kts | 180° |
| 2026-05-07 15:49 | 26.30472 | 119.54936 | 25070 ft | 431 kts | 180° |
| 2026-05-07 15:50 | 26.27495 | 119.54900 | 24623 ft | 428 kts | 180° |
| 2026-05-07 15:50 | 26.24540 | 119.54861 | 24175 ft | 425 kts | 181° |
| 2026-05-07 15:50 | 26.21621 | 119.54530 | 23730 ft | 424 kts | 189° |
| 2026-05-07 15:50 | 26.18760 | 119.53717 | 23282 ft | 422 kts | 195° |
| 2026-05-07 15:51 | 26.15998 | 119.52783 | 22839 ft | 419 kts | 195° |
| 2026-05-07 15:51 | 26.13208 | 119.51831 | 22388 ft | 417 kts | 195° |
| 2026-05-07 15:51 | 26.10474 | 119.50899 | 21944 ft | 414 kts | 195° |
| 2026-05-07 15:51 | 26.07719 | 119.49959 | 21491 ft | 411 kts | 195° |
| 2026-05-07 15:52 | 26.05015 | 119.49037 | 21046 ft | 409 kts | 195° |
| 2026-05-07 15:52 | 26.02327 | 119.48122 | 20600 ft | 406 kts | 195° |
| 2026-05-07 15:52 | 25.99641 | 119.47207 | 20152 ft | 404 kts | 195° |
| 2026-05-07 15:52 | 25.96965 | 119.46297 | 19704 ft | 401 kts | 195° |
| 2026-05-07 15:53 | 25.94300 | 119.45390 | 19254 ft | 399 kts | 195° |
| 2026-05-07 15:53 | 25.91674 | 119.44497 | 18807 ft | 396 kts | 195° |
| 2026-05-07 15:53 | 25.89161 | 119.43643 | 18380 ft | 394 kts | 195° |
| 2026-05-07 15:53 | 25.86550 | 119.42756 | 17937 ft | 392 kts | 195° |
| 2026-05-07 15:54 | 25.83950 | 119.41874 | 17493 ft | 389 kts | 195° |
| 2026-05-07 15:54 | 25.81385 | 119.41003 | 17053 ft | 387 kts | 195° |
| 2026-05-07 15:54 | 25.78818 | 119.40132 | 16609 ft | 385 kts | 195° |
| 2026-05-07 15:54 | 25.76328 | 119.39092 | 16170 ft | 385 kts | 202° |
| 2026-05-07 15:55 | 25.74010 | 119.37671 | 15732 ft | 385 kts | 211° |
| 2026-05-07 15:55 | 25.71883 | 119.35877 | 15291 ft | 386 kts | 219° |
| 2026-05-07 15:55 | 25.69983 | 119.33784 | 14847 ft | 385 kts | 224° |
| 2026-05-07 15:55 | 25.68154 | 119.31634 | 14399 ft | 383 kts | 224° |
| 2026-05-07 15:56 | 25.66350 | 119.29508 | 13954 ft | 381 kts | 224° |
| 2026-05-07 15:56 | 25.64547 | 119.27387 | 13508 ft | 379 kts | 224° |
| 2026-05-07 15:56 | 25.62740 | 119.25262 | 13060 ft | 377 kts | 224° |
| 2026-05-07 15:56 | 25.60945 | 119.23154 | 12612 ft | 375 kts | 224° |
| 2026-05-07 15:57 | 25.59180 | 119.21082 | 12169 ft | 373 kts | 224° |
| 2026-05-07 15:57 | 25.57413 | 119.19009 | 11845 ft | 370 kts | 224° |
| 2026-05-07 15:57 | 25.55630 | 119.16919 | 11808 ft | 371 kts | 224° |
| 2026-05-07 15:57 | 25.53864 | 119.14850 | 11806 ft | 372 kts | 224° |
| 2026-05-07 15:58 | 25.52076 | 119.12756 | 11806 ft | 372 kts | 224° |
| 2026-05-07 15:58 | 25.50321 | 119.10702 | 11806 ft | 372 kts | 224° |
| 2026-05-07 15:58 | 25.48546 | 119.08624 | 11806 ft | 372 kts | 224° |
| 2026-05-07 15:58 | 25.46776 | 119.06554 | 11806 ft | 372 kts | 224° |
| 2026-05-07 15:59 | 25.44982 | 119.04456 | 11806 ft | 372 kts | 224° |
| 2026-05-07 15:59 | 25.43208 | 119.02384 | 11807 ft | 373 kts | 224° |
| 2026-05-07 15:59 | 25.41435 | 119.00314 | 11806 ft | 374 kts | 224° |
| 2026-05-07 15:59 | 25.39635 | 118.98212 | 11806 ft | 375 kts | 224° |
| 2026-05-07 16:00 | 25.37851 | 118.96130 | 11805 ft | 376 kts | 224° |
| 2026-05-07 16:00 | 25.35946 | 118.93909 | 11796 ft | 377 kts | 225° |
| 2026-05-07 16:00 | 25.34061 | 118.91711 | 11582 ft | 377 kts | 225° |
| 2026-05-07 16:00 | 25.32178 | 118.89453 | 11321 ft | 376 kts | 226° |
| 2026-05-07 16:01 | 25.30336 | 118.87214 | 11060 ft | 374 kts | 227° |
| 2026-05-07 16:01 | 25.28545 | 118.85038 | 10806 ft | 372 kts | 227° |
| 2026-05-07 16:01 | 25.26855 | 118.82989 | 10565 ft | 371 kts | 227° |
| 2026-05-07 16:01 | 25.25129 | 118.80898 | 10313 ft | 354 kts | 227° |
| 2026-05-07 16:02 | 25.23515 | 118.78944 | 10070 ft | 335 kts | 227° |
| 2026-05-07 16:02 | 25.22328 | 118.77509 | 9917 ft | 322 kts | 227° |
| 2026-05-07 16:02 | 25.20905 | 118.75789 | 9892 ft | 304 kts | 227° |
| 2026-05-07 16:02 | 25.19480 | 118.74067 | 9903 ft | 301 kts | 227° |
| 2026-05-07 16:03 | 25.18071 | 118.72366 | 9904 ft | 299 kts | 227° |
| 2026-05-07 16:03 | 25.16662 | 118.70667 | 9905 ft | 299 kts | 227° |
| 2026-05-07 16:03 | 25.15256 | 118.68971 | 9905 ft | 299 kts | 227° |
| 2026-05-07 16:03 | 25.13819 | 118.67238 | 9905 ft | 298 kts | 227° |
| 2026-05-07 16:04 | 25.12298 | 118.65404 | 9905 ft | 299 kts | 227° |
| 2026-05-07 16:04 | 25.10769 | 118.63562 | 9905 ft | 299 kts | 227° |
| 2026-05-07 16:04 | 25.09255 | 118.61739 | 9905 ft | 299 kts | 227° |
| 2026-05-07 16:04 | 25.07754 | 118.59991 | 9905 ft | 299 kts | 226° |
| 2026-05-07 16:05 | 25.06306 | 118.58339 | 9905 ft | 299 kts | 226° |
| 2026-05-07 16:05 | 25.04875 | 118.56701 | 9905 ft | 300 kts | 226° |
| 2026-05-07 16:05 | 25.03424 | 118.55036 | 9905 ft | 300 kts | 226° |
| 2026-05-07 16:05 | 25.01970 | 118.53366 | 9905 ft | 300 kts | 226° |
| 2026-05-07 16:06 | 25.00524 | 118.51705 | 9905 ft | 300 kts | 226° |
| 2026-05-07 16:06 | 24.99053 | 118.50015 | 9906 ft | 300 kts | 226° |
| 2026-05-07 16:06 | 24.97614 | 118.48364 | 9906 ft | 300 kts | 226° |
| 2026-05-07 16:06 | 24.96158 | 118.46693 | 9906 ft | 301 kts | 227° |
| 2026-05-07 16:07 | 24.94706 | 118.45028 | 9906 ft | 300 kts | 227° |
| 2026-05-07 16:07 | 24.93267 | 118.43378 | 9906 ft | 301 kts | 227° |
| 2026-05-07 16:07 | 24.91815 | 118.41713 | 9906 ft | 300 kts | 227° |
| 2026-05-07 16:07 | 24.90369 | 118.40057 | 9906 ft | 300 kts | 227° |
| 2026-05-07 16:08 | 24.88925 | 118.38403 | 9904 ft | 300 kts | 227° |
| 2026-05-07 16:08 | 24.87489 | 118.36758 | 9904 ft | 300 kts | 227° |
| 2026-05-07 16:08 | 24.86050 | 118.35104 | 9902 ft | 300 kts | 229° |
| 2026-05-07 16:08 | 24.84979 | 118.33154 | 9895 ft | 299 kts | 253° |
| 2026-05-07 16:09 | 24.84761 | 118.30888 | 9895 ft | 295 kts | 278° |
| 2026-05-07 16:09 | 24.85409 | 118.28779 | 9900 ft | 292 kts | 301° |
| 2026-05-07 16:09 | 24.86548 | 118.26939 | 9903 ft | 291 kts | 309° |
| 2026-05-07 16:09 | 24.87770 | 118.25249 | 9897 ft | 277 kts | 309° |
| 2026-05-07 16:10 | 24.88786 | 118.23509 | 9897 ft | 264 kts | 301° |
| 2026-05-07 16:10 | 24.89632 | 118.21743 | 9901 ft | 259 kts | 299° |
| 2026-05-07 16:10 | 24.90457 | 118.19967 | 9902 ft | 258 kts | 299° |
| 2026-05-07 16:10 | 24.91265 | 118.18223 | 9903 ft | 258 kts | 299° |
| 2026-05-07 16:11 | 24.92069 | 118.16434 | 9901 ft | 258 kts | 293° |
| 2026-05-07 16:11 | 24.92597 | 118.14551 | 9902 ft | 260 kts | 286° |
| 2026-05-07 16:11 | 24.93038 | 118.12624 | 9903 ft | 260 kts | 286° |
| 2026-05-07 16:11 | 24.93474 | 118.10700 | 9903 ft | 260 kts | 286° |
| 2026-05-07 16:12 | 24.93916 | 118.08768 | 9903 ft | 260 kts | 286° |
| 2026-05-07 16:12 | 24.94262 | 118.06802 | 9901 ft | 261 kts | 276° |
| 2026-05-07 16:12 | 24.94341 | 118.04813 | 9902 ft | 262 kts | 273° |
| 2026-05-07 16:12 | 24.94375 | 118.02795 | 9903 ft | 262 kts | 272° |
| 2026-05-07 16:13 | 24.94064 | 118.00845 | 9890 ft | 264 kts | 246° |
| 2026-05-07 16:13 | 24.92928 | 117.99268 | 9889 ft | 266 kts | 217° |
| 2026-05-07 16:13 | 24.91235 | 117.98449 | 9890 ft | 265 kts | 188° |
| 2026-05-07 16:13 | 24.89411 | 117.98413 | 9902 ft | 265 kts | 175° |
| 2026-05-07 16:14 | 24.87589 | 117.98579 | 9903 ft | 264 kts | 173° |
| 2026-05-07 16:14 | 24.85767 | 117.98760 | 9903 ft | 264 kts | 174° |
| 2026-05-07 16:14 | 24.83918 | 117.98938 | 9903 ft | 264 kts | 174° |
| 2026-05-07 16:14 | 24.82105 | 117.99109 | 9903 ft | 264 kts | 174° |
| 2026-05-07 16:15 | 24.80279 | 117.99280 | 9903 ft | 264 kts | 174° |
| 2026-05-07 16:15 | 24.78451 | 117.99451 | 9903 ft | 264 kts | 174° |
| 2026-05-07 16:15 | 24.76614 | 117.99622 | 9902 ft | 264 kts | 174° |
| 2026-05-07 16:15 | 24.74765 | 117.99796 | 9533 ft | 272 kts | 174° |
| 2026-05-07 16:16 | 24.72850 | 117.99975 | 8954 ft | 280 kts | 174° |
| 2026-05-07 16:16 | 24.71213 | 118.00127 | 8460 ft | 285 kts | 174° |
| 2026-05-07 16:16 | 24.69226 | 118.00314 | 7874 ft | 290 kts | 174° |
| 2026-05-07 16:16 | 24.67328 | 118.00491 | 7324 ft | 293 kts | 174° |
| 2026-05-07 16:17 | 24.65675 | 118.00645 | 6851 ft | 295 kts | 174° |
| 2026-05-07 16:17 | 24.64236 | 118.00779 | 6442 ft | 296 kts | 174° |
| 2026-05-07 16:17 | 24.62181 | 118.00970 | 5979 ft | 293 kts | 174° |
| 2026-05-07 16:17 | 24.60207 | 118.01154 | 5901 ft | 277 kts | 174° |
| 2026-05-07 16:18 | 24.58348 | 118.01306 | 5892 ft | 261 kts | 180° |
| 2026-05-07 16:18 | 24.56643 | 118.00855 | 5887 ft | 252 kts | 207° |
| 2026-05-07 16:18 | 24.55219 | 117.99759 | 5896 ft | 249 kts | 222° |
| 2026-05-07 16:18 | 24.53988 | 117.98431 | 5683 ft | 254 kts | 227° |
| 2026-05-07 16:19 | 24.52773 | 117.96976 | 5189 ft | 261 kts | 228° |
| 2026-05-07 16:19 | 24.51544 | 117.95479 | 4680 ft | 267 kts | 228° |
| 2026-05-07 16:19 | 24.50297 | 117.93961 | 4173 ft | 272 kts | 228° |
| 2026-05-07 16:19 | 24.49045 | 117.92440 | 3896 ft | 266 kts | 228° |
| 2026-05-07 16:20 | 24.47686 | 117.91171 | 3860 ft | 251 kts | 206° |
| 2026-05-07 16:20 | 24.46039 | 117.90704 | 3864 ft | 242 kts | 184° |
| 2026-05-07 16:20 | 24.44393 | 117.90927 | 3811 ft | 241 kts | 159° |
| 2026-05-07 16:20 | 24.42915 | 117.91801 | 3441 ft | 244 kts | 140° |
| 2026-05-07 16:21 | 24.41917 | 117.93288 | 3020 ft | 246 kts | 108° |
| 2026-05-07 16:21 | 24.41772 | 117.95092 | 2866 ft | 236 kts | 78° |
| 2026-05-07 16:21 | 24.42420 | 117.96670 | 2855 ft | 222 kts | 50° |
| 2026-05-07 16:21 | 24.43500 | 117.97817 | 2864 ft | 210 kts | 43° |
| 2026-05-07 16:22 | 24.44470 | 117.98941 | 2879 ft | 199 kts | 49° |
| 2026-05-07 16:22 | 24.45324 | 118.00064 | 2752 ft | 187 kts | 50° |
| 2026-05-07 16:22 | 24.46104 | 118.01141 | 2519 ft | 174 kts | 51° |
| 2026-05-07 16:22 | 24.46835 | 118.02165 | 2296 ft | 167 kts | 51° |
| 2026-05-07 16:23 | 24.47530 | 118.03136 | 2072 ft | 158 kts | 51° |
| 2026-05-07 16:23 | 24.48194 | 118.04063 | 1858 ft | 153 kts | 51° |
| 2026-05-07 16:23 | 24.48848 | 118.04977 | 1645 ft | 151 kts | 51° |
| 2026-05-07 16:23 | 24.49489 | 118.05874 | 1433 ft | 150 kts | 51° |
| 2026-05-07 16:24 | 24.50117 | 118.06751 | 1222 ft | 139 kts | 51° |
| 2026-05-07 16:24 | 24.50698 | 118.07562 | 1033 ft | 132 kts | 51° |
| 2026-05-07 16:24 | 24.51258 | 118.08346 | 850 ft | 129 kts | 51° |
| 2026-05-07 16:24 | 24.51807 | 118.09114 | 671 ft | 127 kts | 51° |
| 2026-05-07 16:25 | 24.52359 | 118.09885 | 492 ft | 127 kts | 51° |
| 2026-05-07 16:25 | 24.52898 | 118.10639 | 319 ft | 126 kts | 51° |
| 2026-05-07 16:25 | 24.53443 | 118.11395 | 154 ft | 126 kts | 51° |
| 2026-05-07 16:25 | 24.53957 | 118.12136 | 75 ft | 109 kts | 50° |
| 2026-05-07 16:26 | 24.54338 | 118.12661 | 74 ft | 65 kts | 51° |
| 2026-05-07 16:26 | 24.54542 | 118.12940 | 74 ft | 37 kts | 51° |
| 2026-05-07 16:26 | 24.54656 | 118.13120 | 74 ft | 25 kts | 66° |
| 2026-05-07 16:26 | 24.54698 | 118.13243 | 74 ft | 25 kts | 73° |
| 2026-05-07 16:27 | 24.54647 | 118.13436 | 74 ft | 16 kts | 143° |
| 2026-05-07 16:27 | 24.54540 | 118.13474 | 74 ft | 18 kts | 205° |
| 2026-05-07 16:27 | 24.54452 | 118.13371 | 74 ft | 19 kts | 232° |
| 2026-05-07 16:27 | 24.54369 | 118.13253 | 74 ft | 20 kts | 229° |
| 2026-05-07 16:28 | 24.54272 | 118.13129 | 74 ft | 21 kts | 229° |
| 2026-05-07 16:28 | 24.54175 | 118.13004 | 74 ft | 22 kts | 234° |
| 2026-05-07 16:28 | 24.54080 | 118.12857 | 74 ft | 23 kts | 233° |
| 2026-05-07 16:28 | 24.53990 | 118.12724 | 74 ft | 13 kts | 233° |
| 2026-05-07 16:29 | 24.53933 | 118.12640 | 74 ft | 13 kts | 232° |
| 2026-05-07 16:29 | 24.53875 | 118.12608 | 74 ft | 3 kts | 173° |
| 2026-05-07 16:29 | 24.53856 | 118.12615 | 74 ft | 1 kts | 149° |
| 2026-05-07 16:29 | 24.53844 | 118.12623 | 74 ft | 1 kts | 149° |
| 2026-05-07 16:30 | 24.53842 | 118.12624 | 74 ft | 0 kts | 149° |